createdAt,value
2019-01-25T00:00:57.293Z,34.27
2019-01-25T00:03:10.360Z,35.13
2019-01-25T00:05:21.056Z,34.97
2019-01-25T00:07:31.961Z,32.10
2019-01-25T00:09:42.794Z,35.17
2019-01-25T00:11:53.630Z,33.27
2019-01-25T00:14:46.110Z,35.40
2019-01-25T00:16:56.896Z,34.40
2019-01-25T00:19:07.832Z,33.03
2019-01-25T00:21:18.722Z,33.20
2019-01-25T00:23:29.521Z,30.70
2019-01-25T00:25:40.334Z,32.27
2019-01-25T00:27:51.157Z,32.17
2019-01-25T00:30:43.624Z,31.80
2019-01-25T00:32:54.501Z,30.73
2019-01-25T00:35:46.972Z,32.30
2019-01-25T00:37:57.781Z,31.70
2019-01-25T00:40:50.258Z,33.27
2019-01-25T00:43:01.059Z,33.33
2019-01-25T00:45:53.541Z,32.53
2019-01-25T00:48:04.548Z,30.03
2019-01-25T00:50:35.236Z,31.17
2019-01-25T00:55:38.496Z,31.10
2019-01-25T00:57:49.269Z,28.93
2019-01-25T01:00:00.160Z,28.67
2019-01-25T01:02:10.998Z,30.60
2019-01-25T01:04:21.796Z,32.00
2019-01-25T01:06:32.614Z,28.87
2019-01-25T01:08:43.420Z,28.97
2019-01-25T01:10:54.266Z,28.83
2019-01-25T01:13:05.158Z,29.53
2019-01-25T01:15:16.044Z,28.10
2019-01-25T01:17:26.860Z,28.40
2019-01-25T01:19:37.647Z,26.27
2019-01-25T01:21:48.510Z,25.67
2019-01-25T01:23:59.294Z,26.03
2019-01-25T01:26:10.082Z,23.97
2019-01-25T01:28:20.904Z,25.77
2019-01-25T01:30:31.710Z,26.67
2019-01-25T01:32:42.544Z,27.20
2019-01-25T01:34:53.336Z,26.40
2019-01-25T01:37:04.298Z,28.40
2019-01-25T01:39:15.096Z,25.93
2019-01-25T01:41:25.891Z,24.90
2019-01-25T01:43:36.724Z,26.30
2019-01-25T01:45:47.628Z,26.00
2019-01-25T01:47:58.547Z,26.67
2019-01-25T01:50:50.992Z,26.70
2019-01-25T01:53:01.810Z,25.80
2019-01-25T01:55:12.810Z,24.47
2019-01-25T01:57:23.618Z,25.13
2019-01-25T01:59:34.431Z,24.10
2019-01-25T02:01:45.224Z,23.37
2019-01-25T02:03:56.047Z,22.03
2019-01-25T02:06:06.949Z,24.87
2019-01-25T02:08:17.778Z,24.70
2019-01-25T02:10:29.484Z,23.37
2019-01-25T02:12:41.300Z,25.70
2019-01-25T02:14:52.109Z,25.57
2019-01-25T02:17:03.004Z,22.93
2019-01-25T02:19:13.816Z,22.20
2019-01-25T02:21:24.626Z,25.03
2019-01-25T02:23:35.420Z,25.00
2019-01-25T02:25:46.238Z,23.17
2019-01-25T02:27:57.035Z,22.73
2019-01-25T02:30:49.524Z,22.27
2019-01-25T02:33:00.333Z,23.07
2019-01-25T02:35:11.146Z,23.70
2019-01-25T02:37:21.953Z,23.87
2019-01-25T02:39:32.782Z,23.03
2019-01-25T02:41:43.608Z,22.93
2019-01-25T02:43:54.434Z,23.27
2019-01-25T02:46:05.249Z,23.77
2019-01-25T02:48:16.149Z,26.30
2019-01-25T02:50:26.986Z,24.17
2019-01-25T02:52:37.890Z,22.93
2019-01-25T02:54:48.672Z,25.10
2019-01-25T02:56:59.485Z,25.07
2019-01-25T02:59:10.385Z,25.70
2019-01-25T03:01:21.197Z,25.03
2019-01-25T03:03:32.007Z,24.67
2019-01-25T03:05:42.931Z,25.97
2019-01-25T03:07:53.832Z,24.90
2019-01-25T03:10:47.287Z,23.77
2019-01-25T03:12:59.072Z,24.50
2019-01-25T03:15:29.756Z,23.93
2019-01-25T03:17:40.694Z,24.03
2019-01-25T03:19:51.479Z,25.47
2019-01-25T03:22:02.501Z,24.30
2019-01-25T03:24:13.321Z,23.47
2019-01-25T03:26:24.145Z,25.17
2019-01-25T03:28:34.963Z,24.27
2019-01-25T03:30:45.764Z,25.90
2019-01-25T03:32:56.624Z,24.13
2019-01-25T03:35:49.102Z,24.90
2019-01-25T03:37:59.930Z,26.93
2019-01-25T03:40:55.062Z,25.67
2019-01-25T03:43:05.117Z,24.83
2019-01-25T03:45:57.559Z,25.73
2019-01-25T03:48:08.486Z,23.67
2019-01-25T03:51:00.935Z,25.83
2019-01-25T03:53:11.760Z,24.33
2019-01-25T03:56:04.200Z,20.60
2019-01-25T03:58:15.029Z,25.57
2019-01-25T04:01:07.473Z,25.20
2019-01-25T04:03:18.317Z,22.87
2019-01-25T04:05:29.125Z,25.13
2019-01-25T04:07:39.935Z,26.50
2019-01-25T04:09:50.866Z,24.67
2019-01-25T04:12:01.650Z,25.00
2019-01-25T04:14:12.475Z,25.77
2019-01-25T04:16:23.512Z,25.43
2019-01-25T04:18:34.312Z,24.33
2019-01-25T04:20:45.113Z,24.97
2019-01-25T04:22:56.023Z,24.27
2019-01-25T04:25:48.503Z,24.10
2019-01-25T04:27:59.296Z,25.30
2019-01-25T04:30:29.979Z,24.77
2019-01-25T04:32:40.785Z,24.60
2019-01-25T04:34:51.606Z,24.87
2019-01-25T04:37:02.535Z,24.43
2019-01-25T04:39:13.365Z,27.53
2019-01-25T04:41:24.147Z,25.50
2019-01-25T04:43:34.967Z,24.93
2019-01-25T04:45:45.780Z,26.07
2019-01-25T04:47:56.582Z,25.40
2019-01-25T04:50:49.064Z,24.70
2019-01-25T04:52:59.868Z,23.67
2019-01-25T04:55:30.863Z,28.33
2019-01-25T04:57:41.669Z,25.50
2019-01-25T04:59:52.502Z,25.33
2019-01-25T05:02:03.488Z,26.33
2019-01-25T05:04:14.274Z,24.77
2019-01-25T05:06:25.086Z,24.17
2019-01-25T05:08:35.878Z,24.77
2019-01-25T05:10:46.922Z,24.67
2019-01-25T05:12:57.729Z,25.27
2019-01-25T05:15:08.620Z,24.33
2019-01-25T05:17:19.433Z,26.43
2019-01-25T05:20:11.935Z,26.33
2019-01-25T05:22:22.738Z,24.97
2019-01-25T05:24:33.549Z,24.50
2019-01-25T05:26:44.363Z,26.90
2019-01-25T05:28:55.147Z,24.47
2019-01-25T05:31:05.957Z,26.77
2019-01-25T05:33:16.756Z,27.57
2019-01-25T05:36:09.230Z,24.93
2019-01-25T05:38:20.046Z,24.30
2019-01-25T05:40:30.925Z,26.37
2019-01-25T05:42:41.758Z,25.70
2019-01-25T05:44:52.545Z,25.83
2019-01-25T05:47:45.008Z,27.43
2019-01-25T05:49:55.822Z,25.63
2019-01-25T05:52:48.307Z,25.07
2019-01-25T05:54:59.109Z,24.70
2019-01-25T05:57:09.936Z,26.30
2019-01-25T06:00:02.357Z,25.40
2019-01-25T06:02:13.209Z,26.53
2019-01-25T06:05:05.694Z,25.67
2019-01-25T06:07:36.388Z,26.27
2019-01-25T06:09:47.248Z,26.30
2019-01-25T06:11:58.047Z,26.40
2019-01-25T06:14:50.514Z,26.20
2019-01-25T06:17:01.329Z,25.50
2019-01-25T06:19:12.251Z,29.47
2019-01-25T06:21:23.028Z,26.90
2019-01-25T06:23:33.864Z,27.80
2019-01-25T06:26:26.295Z,28.20
2019-01-25T06:28:37.132Z,26.57
2019-01-25T06:30:47.930Z,26.77
2019-01-25T06:32:58.733Z,29.80
2019-01-25T06:35:51.214Z,27.73
2019-01-25T06:38:02.009Z,28.87
2019-01-25T06:40:54.467Z,27.67
2019-01-25T06:43:05.263Z,28.23
2019-01-25T06:45:16.172Z,27.03
2019-01-25T06:47:26.975Z,24.73
2019-01-25T06:49:37.851Z,28.97
2019-01-25T06:51:48.645Z,26.67
2019-01-25T06:53:59.467Z,29.00
2019-01-25T06:56:10.270Z,29.47
2019-01-25T06:58:41.046Z,28.93
2019-01-25T07:01:11.766Z,27.27
2019-01-25T07:03:22.578Z,29.53
2019-01-25T07:05:33.379Z,29.53
2019-01-25T07:10:58.218Z,27.20
2019-01-25T07:13:09.015Z,27.23
2019-01-25T07:17:38.275Z,27.80
2019-01-25T07:19:49.095Z,29.63
2019-01-25T07:21:59.910Z,29.73
2019-01-25T07:24:10.714Z,29.17
2019-01-25T07:26:21.557Z,29.80
2019-01-25T07:28:32.346Z,29.33
2019-01-25T07:30:43.234Z,29.87
2019-01-25T07:32:53.971Z,28.33
2019-01-25T07:35:46.461Z,29.23
2019-01-25T07:37:57.266Z,27.93
2019-01-25T07:40:49.745Z,27.53
2019-01-25T07:43:00.585Z,28.70
2019-01-25T07:45:53.032Z,27.87
2019-01-25T07:48:04.043Z,30.60
2019-01-25T07:50:34.729Z,29.00
2019-01-25T07:52:45.565Z,29.90
2019-01-25T07:54:56.385Z,29.37
2019-01-25T07:57:07.176Z,30.67
2019-01-25T07:59:17.979Z,27.30
2019-01-25T08:01:28.889Z,30.40
2019-01-25T08:03:39.738Z,29.47
2019-01-25T08:05:50.632Z,29.33
2019-01-25T08:08:01.785Z,28.47
2019-01-25T08:10:26.040Z,27.47
2019-01-25T08:12:50.210Z,28.83
2019-01-25T08:15:01.276Z,27.50
2019-01-25T08:17:12.114Z,27.60
2019-01-25T08:19:22.892Z,26.10
2019-01-25T08:21:33.712Z,26.10
2019-01-25T08:23:44.509Z,27.47
2019-01-25T08:25:55.441Z,25.67
2019-01-25T08:28:06.360Z,25.70
2019-01-25T08:30:58.845Z,26.33
2019-01-25T08:33:09.705Z,25.13
2019-01-25T08:35:20.682Z,26.27
2019-01-25T08:37:31.498Z,26.47
2019-01-25T08:39:42.286Z,25.17
2019-01-25T08:41:53.123Z,24.70
2019-01-25T08:44:03.923Z,26.53
2019-01-25T08:46:14.842Z,26.43
2019-01-25T08:48:25.629Z,25.80
2019-01-25T08:50:36.571Z,26.63
2019-01-25T08:52:47.475Z,25.47
2019-01-25T08:55:00.349Z,25.47
2019-01-25T08:57:12.826Z,25.53
2019-01-25T08:59:23.669Z,24.43
2019-01-25T09:01:34.459Z,23.47
2019-01-25T09:03:45.307Z,22.80
2019-01-25T09:05:56.122Z,22.50
2019-01-25T09:08:07.020Z,23.43
2019-01-25T09:10:37.733Z,23.27
2019-01-25T09:12:48.661Z,21.33
2019-01-25T09:14:59.465Z,22.43
2019-01-25T09:17:10.287Z,23.00
2019-01-25T09:19:21.210Z,22.33
2019-01-25T09:21:31.987Z,21.07
2019-01-25T09:23:42.878Z,22.53
2019-01-25T09:26:00.765Z,22.10
2019-01-25T09:28:06.409Z,21.47
2019-01-25T09:30:37.088Z,22.57
2019-01-25T09:32:47.904Z,21.70
2019-01-25T09:34:58.741Z,21.17
2019-01-25T09:37:09.529Z,23.03
2019-01-25T09:39:20.339Z,22.97
2019-01-25T09:41:31.158Z,23.17
2019-01-25T09:43:41.977Z,23.27
2019-01-25T09:45:52.790Z,22.00
2019-01-25T09:48:45.229Z,22.83
2019-01-25T09:50:56.064Z,20.90
2019-01-25T09:53:06.863Z,21.60
2019-01-25T09:55:37.551Z,21.67
2019-01-25T09:58:29.990Z,21.03
2019-01-25T10:01:22.448Z,22.83
2019-01-25T10:03:33.246Z,22.07
2019-01-25T10:05:44.218Z,20.97
2019-01-25T10:07:55.158Z,22.33
2019-01-25T10:10:47.646Z,22.43
2019-01-25T10:12:58.464Z,22.10
2019-01-25T10:15:50.908Z,21.60
2019-01-25T10:18:01.729Z,23.47
2019-01-25T10:20:54.183Z,23.77
2019-01-25T10:23:04.994Z,22.53
2019-01-25T10:25:15.801Z,23.50
2019-01-25T10:27:26.609Z,21.57
2019-01-25T10:29:37.410Z,22.27
2019-01-25T10:31:48.364Z,22.97
2019-01-25T10:33:59.158Z,22.87
2019-01-25T10:36:10.064Z,24.97
2019-01-25T10:38:20.897Z,23.63
2019-01-25T10:40:31.691Z,22.83
2019-01-25T10:46:02.977Z,23.13
2019-01-25T10:48:13.827Z,22.73
2019-01-25T10:50:24.715Z,24.37
2019-01-25T10:52:35.525Z,23.37
2019-01-25T10:54:46.376Z,22.87
2019-01-25T10:56:57.219Z,23.20
2019-01-25T10:59:08.029Z,23.67
2019-01-25T11:01:38.702Z,22.23
2019-01-25T11:03:49.616Z,23.33
2019-01-25T11:06:00.512Z,22.97
2019-01-25T11:08:11.305Z,24.77
2019-01-25T11:10:22.140Z,22.10
2019-01-25T11:12:33.028Z,23.33
2019-01-25T11:14:43.860Z,22.53
2019-01-25T11:16:54.661Z,22.70
2019-01-25T11:19:05.569Z,22.30
2019-01-25T11:21:16.735Z,23.87
2019-01-25T11:23:27.553Z,23.00
2019-01-25T11:26:20.317Z,23.47
2019-01-25T11:28:31.211Z,23.27
2019-01-25T11:30:42.049Z,23.13
2019-01-25T11:32:52.882Z,24.07
2019-01-25T11:35:05.983Z,23.20
2019-01-25T11:37:16.871Z,23.63
2019-01-25T11:39:27.688Z,22.40
2019-01-25T11:41:38.511Z,23.23
2019-01-25T11:43:49.322Z,22.93
2019-01-25T11:46:00.153Z,21.90
2019-01-25T11:48:52.599Z,24.57
2019-01-25T11:51:03.514Z,21.93
2019-01-25T11:53:14.311Z,23.27
2019-01-25T11:55:25.229Z,23.20
2019-01-25T11:57:36.109Z,22.70
2019-01-25T11:59:46.927Z,24.73
2019-01-25T12:01:57.742Z,24.27
2019-01-25T12:06:41.025Z,24.27
2019-01-25T12:08:51.863Z,24.80
2019-01-25T12:11:02.850Z,22.27
2019-01-25T12:13:16.183Z,22.73
2019-01-25T12:15:26.341Z,21.83
2019-01-25T12:17:37.151Z,22.93
2019-01-25T12:19:47.929Z,22.37
2019-01-25T12:21:58.932Z,21.83
2019-01-25T12:24:09.833Z,21.90
2019-01-25T12:26:20.656Z,21.87
2019-01-25T12:28:31.490Z,22.63
2019-01-25T12:30:42.283Z,21.73
2019-01-25T12:32:53.107Z,20.37
2019-01-25T12:35:45.549Z,20.03
2019-01-25T12:37:56.376Z,20.30
2019-01-25T12:40:48.870Z,21.43
2019-01-25T12:43:41.354Z,19.80
2019-01-25T12:45:52.150Z,16.90
2019-01-25T12:48:03.205Z,17.93
2019-01-25T12:50:55.663Z,17.83
2019-01-25T12:53:48.125Z,16.93
2019-01-25T12:55:58.922Z,17.83
2019-01-25T12:58:09.778Z,19.83
2019-01-25T13:00:40.555Z,18.87
2019-01-25T13:03:33.034Z,19.17
2019-01-25T13:05:43.966Z,21.17
2019-01-25T13:07:54.798Z,17.57
2019-01-25T13:10:47.255Z,19.80
2019-01-25T13:12:58.198Z,20.83
2019-01-25T13:15:50.649Z,18.67
2019-01-25T13:18:01.491Z,17.57
2019-01-25T13:23:04.629Z,18.80
2019-01-25T13:25:15.719Z,20.03
2019-01-25T13:27:26.549Z,21.13
2019-01-25T13:29:37.421Z,20.43
2019-01-25T13:31:48.449Z,21.50
2019-01-25T13:34:01.051Z,19.30
2019-01-25T13:36:11.980Z,21.50
2019-01-25T13:38:22.803Z,19.90
2019-01-25T13:40:33.750Z,22.00
2019-01-25T13:42:44.696Z,20.20
2019-01-25T13:44:55.517Z,22.27
2019-01-25T13:47:06.441Z,19.47
2019-01-25T13:49:17.282Z,20.87
2019-01-25T13:51:28.132Z,20.33
2019-01-25T13:53:39.021Z,20.97
2019-01-25T13:55:49.866Z,21.47
2019-01-25T13:58:00.683Z,21.17
2019-01-25T14:00:32.274Z,18.50
2019-01-25T14:02:43.072Z,18.93
2019-01-25T14:04:53.881Z,18.67
2019-01-25T14:07:04.696Z,19.07
2019-01-25T14:09:16.853Z,19.27
2019-01-25T14:11:28.352Z,17.00
2019-01-25T14:13:39.160Z,19.70
2019-01-25T14:15:50.026Z,19.03
2019-01-25T14:18:00.963Z,20.50
2019-01-25T14:20:31.866Z,20.77
2019-01-25T14:22:42.724Z,20.80
2019-01-25T14:24:53.544Z,20.70
2019-01-25T14:27:04.371Z,18.87
2019-01-25T14:29:15.199Z,19.43
2019-01-25T14:31:26.115Z,24.27
2019-01-25T14:33:36.933Z,24.20
2019-01-25T14:35:47.750Z,20.80
2019-01-25T14:37:58.595Z,20.10
2019-01-25T14:40:09.503Z,21.03
2019-01-25T14:42:20.335Z,19.00
2019-01-25T14:44:31.136Z,18.07
2019-01-25T14:46:41.956Z,18.13
2019-01-25T14:48:52.839Z,16.20
2019-01-25T14:51:03.778Z,17.03
2019-01-25T14:53:14.728Z,17.67
2019-01-25T14:55:25.529Z,19.20
2019-01-25T14:57:36.493Z,17.30
2019-01-25T14:59:47.287Z,16.47
2019-01-25T15:01:58.125Z,18.40
2019-01-25T15:04:08.926Z,18.93
2019-01-25T15:06:19.757Z,18.80
2019-01-25T15:08:30.561Z,19.90
2019-01-25T15:10:41.387Z,20.63
2019-01-25T15:13:33.876Z,18.40
2019-01-25T15:15:44.663Z,18.07
2019-01-25T15:17:55.527Z,19.57
2019-01-25T15:20:26.212Z,19.37
2019-01-25T15:22:37.056Z,18.43
2019-01-25T15:24:47.878Z,18.50
2019-01-25T15:26:58.685Z,19.23
2019-01-25T15:29:09.605Z,17.93
2019-01-25T15:31:20.411Z,17.80
2019-01-25T15:33:31.374Z,18.47
2019-01-25T15:35:42.164Z,18.10
2019-01-25T15:37:53.094Z,17.77
2019-01-25T15:40:27.722Z,17.40
2019-01-25T15:42:40.535Z,17.93
2019-01-25T15:45:33.105Z,16.07
2019-01-25T15:47:44.237Z,17.77
2019-01-25T15:49:55.052Z,16.90
2019-01-25T15:52:05.863Z,16.23
2019-01-25T15:54:36.651Z,14.43
2019-01-25T15:56:47.462Z,15.80
2019-01-25T15:58:58.338Z,14.20
2019-01-25T16:01:09.125Z,14.70
2019-01-25T16:03:19.972Z,16.03
2019-01-25T16:05:30.899Z,15.80
2019-01-25T16:07:41.814Z,15.57
2019-01-25T16:09:52.643Z,16.40
2019-01-25T16:12:17.166Z,16.03
2019-01-25T16:14:28.004Z,16.40
2019-01-25T16:16:38.911Z,17.53
2019-01-25T16:18:49.783Z,16.63
2019-01-25T16:21:00.687Z,16.20
2019-01-25T16:23:11.497Z,16.43
2019-01-25T16:26:03.960Z,16.93
2019-01-25T16:28:14.796Z,16.47
2019-01-25T16:31:07.277Z,15.90
2019-01-25T16:33:18.132Z,17.23
2019-01-25T16:35:29.092Z,16.60
2019-01-25T16:37:39.889Z,16.47
2019-01-25T16:39:50.705Z,15.53
2019-01-25T16:42:01.561Z,17.87
2019-01-25T16:44:12.582Z,15.47
2019-01-25T16:46:43.389Z,17.03
2019-01-25T16:48:54.200Z,15.17
2019-01-25T16:51:05.116Z,14.83
2019-01-25T16:53:15.919Z,14.77
2019-01-25T16:55:26.847Z,15.57
2019-01-25T16:57:37.670Z,13.87
2019-01-25T16:59:48.481Z,12.90
2019-01-25T17:01:59.318Z,11.83
2019-01-25T17:04:10.135Z,12.57
2019-01-25T17:06:21.065Z,11.73
2019-01-25T17:08:31.989Z,11.57
2019-01-25T17:10:42.828Z,10.53
2019-01-25T17:12:53.626Z,10.00
2019-01-25T17:15:46.190Z,10.47
2019-01-25T17:17:57.021Z,10.87
2019-01-25T17:20:28.001Z,10.70
2019-01-25T17:22:38.942Z,10.33
2019-01-25T17:24:49.751Z,11.00
2019-01-25T17:27:00.591Z,9.77
2019-01-25T17:29:11.409Z,9.37
2019-01-25T17:31:22.213Z,9.47
2019-01-25T17:33:33.040Z,9.57
2019-01-25T17:35:43.855Z,8.67
2019-01-25T17:37:54.676Z,9.17
2019-01-25T17:40:47.255Z,9.63
2019-01-25T17:43:40.900Z,9.60
2019-01-25T17:45:52.586Z,11.93
2019-01-25T17:48:45.342Z,11.90
2019-01-25T17:50:56.131Z,13.33
2019-01-25T17:53:06.984Z,15.60
2019-01-25T17:55:17.814Z,15.03
2019-01-25T17:57:28.646Z,15.63
2019-01-25T17:59:39.424Z,15.57
2019-01-25T18:01:50.242Z,15.13
2019-01-25T18:04:01.104Z,16.20
2019-01-25T18:06:11.922Z,15.30
2019-01-25T18:08:22.849Z,15.43
2019-01-25T18:10:33.914Z,14.50
2019-01-25T18:12:44.732Z,14.20
2019-01-25T18:14:55.563Z,14.87
2019-01-25T18:17:06.459Z,13.67
2019-01-25T18:19:17.423Z,14.50
2019-01-25T18:21:28.221Z,14.73
2019-01-25T18:23:39.167Z,13.87
2019-01-25T18:25:50.212Z,14.23
2019-01-25T18:28:42.680Z,13.80
2019-01-25T18:31:35.133Z,13.77
2019-01-25T18:33:46.065Z,13.37
2019-01-25T18:35:56.899Z,13.57
2019-01-25T18:38:07.842Z,14.37
2019-01-25T18:40:18.711Z,13.50
2019-01-25T18:42:29.675Z,14.23
2019-01-25T18:44:40.529Z,14.50
2019-01-25T18:46:51.387Z,14.53
2019-01-25T18:49:43.866Z,14.00
2019-01-25T18:51:54.773Z,12.60
2019-01-25T18:54:05.593Z,13.17
2019-01-25T18:56:16.458Z,12.80
2019-01-25T18:58:27.292Z,12.27
2019-01-25T19:03:14.351Z,11.90
2019-01-25T19:05:25.226Z,11.37
2019-01-25T19:07:36.037Z,10.80
2019-01-25T19:09:46.900Z,12.47
2019-01-25T19:11:57.714Z,10.80
2019-01-25T19:14:08.562Z,11.43
2019-01-25T19:16:19.460Z,9.57
2019-01-25T19:18:30.283Z,10.13
2019-01-25T19:20:41.215Z,9.80
2019-01-25T19:25:50.745Z,8.90
2019-01-25T19:28:01.677Z,8.70
2019-01-25T19:30:54.151Z,9.60
2019-01-25T19:33:05.065Z,8.90
2019-01-25T19:35:15.962Z,9.07
2019-01-25T19:37:26.890Z,8.23
2019-01-25T19:39:37.712Z,8.40
2019-01-25T19:41:48.564Z,9.70
2019-01-25T19:43:59.444Z,8.50
2019-01-25T19:46:10.379Z,7.80
2019-01-25T19:48:21.354Z,7.53
2019-01-25T19:50:32.286Z,7.70
2019-01-25T19:52:43.149Z,7.60
2019-01-25T19:54:54.012Z,7.53
2019-01-25T19:57:04.914Z,8.20
2019-01-25T19:59:15.868Z,7.27
2019-01-25T20:01:26.796Z,7.53
2019-01-25T20:03:37.925Z,7.93
2019-01-25T20:05:50.397Z,7.67
2019-01-25T20:10:47.037Z,8.03
2019-01-25T20:12:58.055Z,7.53
2019-01-25T20:15:50.516Z,8.47
2019-01-25T20:18:01.373Z,8.17
2019-01-25T20:20:53.831Z,7.90
2019-01-25T20:23:04.862Z,7.43
2019-01-25T20:25:15.706Z,7.87
2019-01-25T20:27:26.513Z,7.77
2019-01-25T20:29:37.454Z,8.13
2019-01-25T20:31:48.390Z,7.83
2019-01-25T20:33:59.344Z,8.07
2019-01-25T20:36:10.199Z,8.27
2019-01-25T20:38:21.054Z,8.27
2019-01-25T20:40:32.108Z,7.90
2019-01-25T20:43:24.656Z,8.37
2019-01-25T20:46:17.105Z,8.50
2019-01-25T20:48:27.968Z,7.70
2019-01-25T20:50:38.867Z,8.03
2019-01-25T20:52:49.691Z,8.53
2019-01-25T20:55:00.549Z,7.57
2019-01-25T20:57:11.364Z,7.10
2019-01-25T20:59:22.180Z,8.07
2019-01-25T21:01:33.085Z,7.60
2019-01-25T21:03:43.912Z,7.70
2019-01-25T21:05:54.848Z,8.07
2019-01-25T21:08:06.003Z,6.90
2019-01-25T21:10:36.823Z,7.33
2019-01-25T21:12:47.809Z,6.80
2019-01-25T21:14:58.718Z,7.17
2019-01-25T21:17:09.697Z,6.97
2019-01-25T21:19:20.568Z,6.90
2019-01-25T21:21:31.417Z,6.60
2019-01-25T21:23:42.329Z,7.13
2019-01-25T21:25:53.130Z,6.40
2019-01-25T21:28:04.407Z,6.63
2019-01-25T21:30:56.852Z,7.00
2019-01-25T21:33:07.863Z,6.47
2019-01-25T21:35:18.919Z,6.60
2019-01-25T21:37:29.803Z,7.00
2019-01-25T21:39:40.623Z,6.50
2019-01-25T21:41:51.453Z,6.17
2019-01-25T21:44:02.474Z,5.87
2019-01-25T21:46:13.275Z,6.10
2019-01-25T21:48:24.122Z,6.30
2019-01-25T21:51:16.576Z,6.30
2019-01-25T21:53:27.591Z,5.97
2019-01-25T21:55:38.485Z,6.30
2019-01-25T21:57:49.417Z,5.93
2019-01-25T22:00:00.219Z,5.53
2019-01-25T22:02:11.133Z,5.87
2019-01-25T22:04:23.352Z,6.37
2019-01-25T22:06:34.879Z,6.10
2019-01-25T22:08:45.723Z,6.27
2019-01-25T22:10:56.550Z,6.77
2019-01-25T22:13:07.470Z,7.03
2019-01-25T22:17:51.057Z,6.43
2019-01-25T22:20:23.680Z,6.13
2019-01-25T22:22:34.485Z,6.50
2019-01-25T22:24:45.336Z,6.63
2019-01-25T22:26:56.155Z,6.47
2019-01-25T22:29:06.971Z,6.80
2019-01-25T22:31:17.790Z,7.40
2019-01-25T22:33:28.600Z,7.07
2019-01-25T22:35:39.433Z,6.47
2019-01-25T22:37:50.351Z,6.70
2019-01-25T22:40:42.816Z,6.37
2019-01-25T22:42:53.649Z,7.30
2019-01-25T22:45:46.110Z,7.07
2019-01-25T22:48:38.549Z,6.63
2019-01-25T22:50:49.381Z,6.77
2019-01-25T22:53:00.216Z,7.03
2019-01-25T22:55:52.677Z,7.40
2019-01-25T22:58:03.731Z,7.00
2019-01-25T23:00:55.818Z,7.10
2019-01-25T23:03:06.639Z,7.20
2019-01-25T23:05:39.232Z,6.77
2019-01-25T23:07:50.048Z,6.20
2019-01-25T23:10:01.278Z,6.93
2019-01-25T23:12:12.236Z,6.27
2019-01-25T23:14:23.043Z,6.90
2019-01-25T23:16:33.856Z,6.30
2019-01-25T23:18:44.658Z,7.13
2019-01-25T23:20:55.490Z,6.93
2019-01-25T23:23:06.328Z,6.73
2019-01-25T23:25:17.135Z,6.03
2019-01-25T23:27:27.954Z,6.00
2019-01-25T23:29:38.851Z,6.67
2019-01-25T23:31:49.768Z,6.73
2019-01-25T23:34:00.676Z,6.40
2019-01-25T23:36:11.485Z,6.83
2019-01-25T23:38:22.315Z,5.60
2019-01-25T23:40:33.140Z,6.17
2019-01-25T23:42:44.162Z,6.57
2019-01-25T23:44:54.956Z,6.03
2019-01-25T23:47:05.762Z,6.23
2019-01-25T23:49:16.593Z,6.13
2019-01-25T23:51:27.389Z,6.30
2019-01-25T23:53:38.218Z,6.30
2019-01-25T23:55:49.013Z,6.27
2019-01-25T23:57:59.823Z,6.30
